Time;durP1;ratioP1;P1;durP2;ratioP2;P2;SDS_P1;SDS_P2;PMS_P1;PMS_P2;Temp;Humidity;BMP_temperature;BMP_pressure;BME280_temperature;BME280_humidity;BME280_pressure;Samples;Min_cycle;Max_cycle;Signal;HPM_P1;HPM_P2
2023/05/20 00:00:33;;;;;;;3.60;3.30;;;;;;;;;;5068111;28;20172;-77
2023/05/20 00:02:59;;;;;;;3.40;3.10;;;;;;;;;;5070724;28;20224;-77
2023/05/20 00:05:25;;;;;;;3.50;3.17;;;;;;;;;;5064580;28;20173;-77
2023/05/20 00:07:50;;;;;;;5.37;3.40;;;;;;;;;;5087897;28;20178;-77
2023/05/20 00:10:15;;;;;;;3.97;3.67;;;;;;;;;;5071953;28;20183;-77
2023/05/20 00:12:40;;;;;;;3.33;3.03;;;;;;;;;;5095306;28;20177;-77
2023/05/20 00:15:06;;;;;;;4.90;3.37;;;;;;;;;;5070900;28;20199;-77
2023/05/20 00:17:31;;;;;;;5.97;3.60;;;;;;;;;;5072181;28;20176;-77
2023/05/20 00:19:56;;;;;;;5.63;3.50;;;;;;;;;;5087222;28;20271;-77
2023/05/20 00:22:22;;;;;;;3.97;3.23;;;;;;;;;;5068400;28;20253;-77
2023/05/20 00:24:47;;;;;;;4.07;3.63;;;;;;;;;;5086356;28;20184;-77
2023/05/20 00:27:12;;;;;;;4.93;4.10;;;;;;;;;;5070202;28;20189;-77
2023/05/20 00:29:37;;;;;;;3.77;3.47;;;;;;;;;;5071145;28;20230;-77
2023/05/20 00:32:03;;;;;;;4.30;3.90;;;;;;;;;;5088821;28;20176;-77
2023/05/20 00:34:28;;;;;;;5.93;3.67;;;;;;;;;;5087987;28;20173;-77
2023/05/20 00:36:53;;;;;;;4.17;3.77;;;;;;;;;;5084487;28;20217;-77
2023/05/20 00:39:18;;;;;;;4.77;3.80;;;;;;;;;;5068425;28;20181;-77
2023/05/20 00:41:44;;;;;;;4.13;3.70;;;;;;;;;;5065671;28;20252;-77
2023/05/20 00:44:09;;;;;;;4.97;4.10;;;;;;;;;;5072857;28;20365;-77
2023/05/20 00:46:34;;;;;;;3.43;3.13;;;;;;;;;;5072490;28;20241;-77
2023/05/20 00:49:00;;;;;;;5.60;4.03;;;;;;;;;;5069873;28;20241;-77
2023/05/20 00:51:25;;;;;;;6.27;4.53;;;;;;;;;;5070141;28;20184;-77
2023/05/20 00:53:50;;;;;;;5.77;4.33;;;;;;;;;;5068612;28;20191;-77
2023/05/20 00:56:16;;;;;;;4.50;4.07;;;;;;;;;;5085362;28;20301;-77
2023/05/20 00:58:42;;;;;;;5.10;4.23;;;;;;;;;;5067384;28;20277;-77
2023/05/20 01:01:07;;;;;;;4.40;3.80;;;;;;;;;;5069056;28;20267;-77
2023/05/20 01:03:32;;;;;;;5.30;4.03;;;;;;;;;;5073554;28;20242;-77
2023/05/20 01:05:58;;;;;;;4.30;3.90;;;;;;;;;;5073430;28;20251;-77
2023/05/20 01:08:23;;;;;;;5.27;4.33;;;;;;;;;;5065008;28;20184;-77
2023/05/20 01:10:50;;;;;;;5.37;4.20;;;;;;;;;;5083777;28;20191;-77
2023/05/20 01:13:17;;;;;;;8.63;4.20;;;;;;;;;;5089885;28;20176;-77
2023/05/20 01:15:44;;;;;;;4.20;3.83;;;;;;;;;;5084906;28;20211;-77
2023/05/20 01:18:10;;;;;;;7.23;4.13;;;;;;;;;;5086002;28;20184;-77
2023/05/20 01:20:36;;;;;;;5.90;4.30;;;;;;;;;;5066015;28;20191;-77
2023/05/20 01:23:02;;;;;;;6.20;4.30;;;;;;;;;;5085347;28;20299;-77
2023/05/20 01:25:27;;;;;;;5.00;4.53;;;;;;;;;;5068808;28;20262;-77
2023/05/20 01:27:53;;;;;;;4.13;3.83;;;;;;;;;;5070261;28;20171;-77
2023/05/20 01:30:19;;;;;;;5.10;4.60;;;;;;;;;;5084066;28;20255;-77
2023/05/20 01:32:50;;;;;;;4.50;4.10;;;;;;;;;;5068265;28;20210;-77
2023/05/20 01:35:16;;;;;;;4.57;4.10;;;;;;;;;;5066203;28;20267;-77
2023/05/20 01:37:42;;;;;;;4.80;4.30;;;;;;;;;;5069664;28;20315;-77
2023/05/20 01:40:08;;;;;;;4.13;3.77;;;;;;;;;;5064815;28;20196;-77
2023/05/20 01:42:34;;;;;;;5.43;4.20;;;;;;;;;;5069901;28;20213;-77
2023/05/20 01:45:00;;;;;;;4.50;4.10;;;;;;;;;;5086339;28;20186;-77
2023/05/20 01:47:25;;;;;;;4.27;3.87;;;;;;;;;;5088131;28;20276;-77
2023/05/20 01:49:52;;;;;;;4.57;4.17;;;;;;;;;;5067199;28;20219;-77
2023/05/20 01:52:18;;;;;;;4.07;3.77;;;;;;;;;;5069171;28;20264;-77
2023/05/20 01:54:49;;;;;;;5.20;4.43;;;;;;;;;;5067252;28;20188;-77
2023/05/20 01:57:15;;;;;;;5.10;4.60;;;;;;;;;;5068708;28;20193;-77
2023/05/20 01:59:40;;;;;;;4.70;4.20;;;;;;;;;;5067578;28;20263;-77
2023/05/20 02:02:05;;;;;;;5.07;4.13;;;;;;;;;;5068336;28;20196;-77
2023/05/20 02:04:30;;;;;;;5.00;4.50;;;;;;;;;;5068104;28;20191;-77
2023/05/20 02:06:55;;;;;;;5.23;4.20;;;;;;;;;;5067084;28;20180;-76
2023/05/20 02:09:21;;;;;;;5.10;4.30;;;;;;;;;;5073649;28;20334;-77
2023/05/20 02:11:46;;;;;;;6.03;4.10;;;;;;;;;;5067294;28;20256;-77
2023/05/20 02:14:11;;;;;;;5.00;4.07;;;;;;;;;;5068246;28;20244;-77
2023/05/20 02:16:36;;;;;;;4.80;4.40;;;;;;;;;;5068221;28;20247;-77
2023/05/20 02:19:01;;;;;;;4.93;4.43;;;;;;;;;;5060225;28;20180;-77
2023/05/20 02:21:27;;;;;;;5.13;4.17;;;;;;;;;;5067853;28;20180;-77
2023/05/20 02:23:52;;;;;;;7.97;4.83;;;;;;;;;;5068263;28;20215;-77
2023/05/20 02:26:19;;;;;;;4.73;4.30;;;;;;;;;;5067522;28;20197;-77
2023/05/20 02:28:45;;;;;;;5.17;4.67;;;;;;;;;;5085154;28;20260;-77
2023/05/20 02:31:11;;;;;;;5.07;4.00;;;;;;;;;;5066758;28;20169;-77
2023/05/20 02:33:36;;;;;;;4.53;4.07;;;;;;;;;;5087915;28;20278;-77
2023/05/20 02:36:01;;;;;;;6.87;5.13;;;;;;;;;;5084993;28;20180;-77
2023/05/20 02:38:26;;;;;;;4.60;4.17;;;;;;;;;;5072406;28;20219;-77
2023/05/20 02:40:52;;;;;;;4.60;4.20;;;;;;;;;;5067449;28;20184;-77
2023/05/20 02:43:17;;;;;;;4.57;4.17;;;;;;;;;;5069240;28;20273;-77
2023/05/20 02:45:42;;;;;;;4.63;4.23;;;;;;;;;;5067872;28;20184;-77
2023/05/20 02:48:07;;;;;;;4.37;3.97;;;;;;;;;;5069281;28;20180;-77
2023/05/20 02:50:32;;;;;;;4.60;4.13;;;;;;;;;;5067687;28;20207;-77
2023/05/20 02:52:58;;;;;;;5.60;4.80;;;;;;;;;;5066827;28;20199;-77
2023/05/20 02:55:23;;;;;;;5.47;4.57;;;;;;;;;;5068794;28;20217;-77
2023/05/20 02:57:48;;;;;;;5.23;4.63;;;;;;;;;;5068279;28;20195;-77
2023/05/20 03:00:13;;;;;;;4.27;3.83;;;;;;;;;;5079939;28;20187;-77
2023/05/20 03:02:39;;;;;;;5.53;5.03;;;;;;;;;;5085228;28;20204;-77
2023/05/20 03:05:04;;;;;;;5.37;4.27;;;;;;;;;;5083427;28;20180;-77
2023/05/20 03:07:30;;;;;;;4.83;4.27;;;;;;;;;;5068970;28;20190;-77
2023/05/20 03:09:57;;;;;;;5.30;4.87;;;;;;;;;;5064318;28;20188;-77
2023/05/20 03:12:24;;;;;;;5.20;4.70;;;;;;;;;;5068572;28;20184;-77
2023/05/20 03:14:53;;;;;;;5.20;4.70;;;;;;;;;;5067171;28;20219;-77
2023/05/20 03:17:19;;;;;;;6.07;4.30;;;;;;;;;;5072861;28;20188;-77
2023/05/20 03:19:44;;;;;;;6.50;5.30;;;;;;;;;;5087965;28;20171;-77
2023/05/20 03:22:10;;;;;;;6.47;4.50;;;;;;;;;;5071772;28;20175;-77
2023/05/20 03:24:35;;;;;;;5.70;4.77;;;;;;;;;;5072309;28;20184;-77
2023/05/20 03:27:00;;;;;;;5.40;4.60;;;;;;;;;;5088818;28;20176;-77
2023/05/20 03:29:26;;;;;;;7.50;5.07;;;;;;;;;;5066635;28;20239;-77
2023/05/20 03:31:51;;;;;;;6.17;5.67;;;;;;;;;;5070240;28;20180;-76
2023/05/20 03:34:16;;;;;;;5.60;4.77;;;;;;;;;;5074390;28;20198;-77
2023/05/20 03:36:41;;;;;;;4.90;4.40;;;;;;;;;;5071607;28;20227;-77
2023/05/20 03:39:06;;;;;;;5.30;4.87;;;;;;;;;;5071124;28;20184;-77
2023/05/20 03:41:32;;;;;;;5.10;4.60;;;;;;;;;;5070527;28;20241;-77
2023/05/20 03:43:57;;;;;;;5.37;4.87;;;;;;;;;;5069485;28;20204;-77
2023/05/20 03:46:22;;;;;;;5.20;4.70;;;;;;;;;;5071283;28;20188;-77
2023/05/20 03:48:47;;;;;;;5.40;4.90;;;;;;;;;;5088816;28;20180;-77
2023/05/20 03:51:12;;;;;;;6.80;4.70;;;;;;;;;;5072522;28;20193;-77
2023/05/20 03:53:38;;;;;;;6.13;5.33;;;;;;;;;;5072938;28;20188;-77
2023/05/20 03:56:03;;;;;;;5.47;4.90;;;;;;;;;;5067409;28;20191;-77
2023/05/20 03:58:30;;;;;;;6.47;5.17;;;;;;;;;;5087839;28;20299;-77
2023/05/20 04:00:55;;;;;;;4.87;4.37;;;;;;;;;;5067454;28;20180;-77
2023/05/20 04:03:21;;;;;;;5.23;4.83;;;;;;;;;;5072053;28;20295;-77
2023/05/20 04:05:46;;;;;;;5.37;4.87;;;;;;;;;;5087582;28;20176;-77
2023/05/20 04:08:12;;;;;;;5.17;4.67;;;;;;;;;;5068329;28;20233;-77
2023/05/20 04:10:39;;;;;;;6.70;4.87;;;;;;;;;;5074587;28;20184;-77
2023/05/20 04:13:04;;;;;;;6.00;5.50;;;;;;;;;;5071441;28;20180;-77
2023/05/20 04:15:29;;;;;;;8.70;5.30;;;;;;;;;;5071098;28;20184;-77
2023/05/20 04:17:54;;;;;;;6.43;5.70;;;;;;;;;;5070209;28;20204;-77
2023/05/20 04:20:20;;;;;;;5.60;5.00;;;;;;;;;;5087275;28;20173;-77
2023/05/20 04:22:45;;;;;;;5.90;5.27;;;;;;;;;;5070489;28;20197;-77
2023/05/20 04:25:11;;;;;;;6.63;4.90;;;;;;;;;;5068378;28;20183;-77
2023/05/20 04:27:39;;;;;;;5.47;4.93;;;;;;;;;;5073675;28;20187;-77
2023/05/20 04:30:05;;;;;;;6.07;4.77;;;;;;;;;;5072800;28;20212;-77
2023/05/20 04:32:30;;;;;;;5.07;4.40;;;;;;;;;;5070890;28;20222;-77
2023/05/20 04:34:56;;;;;;;5.27;4.77;;;;;;;;;;5067573;28;20261;-77
2023/05/20 04:37:21;;;;;;;6.17;5.37;;;;;;;;;;5086039;28;20357;-77
2023/05/20 04:39:48;;;;;;;5.43;4.93;;;;;;;;;;5084905;28;20191;-77
2023/05/20 04:42:14;;;;;;;5.83;4.90;;;;;;;;;;5067299;28;20194;-77
2023/05/20 04:44:39;;;;;;;5.43;4.77;;;;;;;;;;5069772;28;20176;-77
2023/05/20 04:47:06;;;;;;;6.90;5.23;;;;;;;;;;5070993;28;20176;-77
2023/05/20 04:49:31;;;;;;;8.67;5.17;;;;;;;;;;5066999;28;20236;-77
2023/05/20 04:51:57;;;;;;;5.87;5.13;;;;;;;;;;5066238;28;20265;-77
2023/05/20 04:54:23;;;;;;;6.87;5.40;;;;;;;;;;5067881;28;20181;-77
2023/05/20 04:56:49;;;;;;;5.60;5.10;;;;;;;;;;5068739;28;20201;-77
2023/05/20 04:59:15;;;;;;;6.37;5.77;;;;;;;;;;5087891;28;20223;-77
2023/05/20 05:01:40;;;;;;;5.83;5.30;;;;;;;;;;5070329;28;20173;-77
2023/05/20 05:04:05;;;;;;;6.40;5.37;;;;;;;;;;5086499;28;20211;-77
2023/05/20 05:06:31;;;;;;;5.80;5.20;;;;;;;;;;5067513;28;20187;-77
2023/05/20 05:08:56;;;;;;;5.17;4.67;;;;;;;;;;5067352;28;20175;-77
2023/05/20 05:11:21;;;;;;;6.40;5.70;;;;;;;;;;5066217;28;20168;-77
2023/05/20 05:13:47;;;;;;;5.57;5.07;;;;;;;;;;5068625;28;20216;-77
2023/05/20 05:16:12;;;;;;;5.40;4.90;;;;;;;;;;5070056;28;20179;-77
2023/05/20 05:18:37;;;;;;;6.47;5.17;;;;;;;;;;5066894;28;20280;-76
2023/05/20 05:21:03;;;;;;;8.43;4.53;;;;;;;;;;5070659;28;20190;-77
2023/05/20 05:23:28;;;;;;;5.27;4.77;;;;;;;;;;5062684;28;20227;-77
2023/05/20 05:25:54;;;;;;;5.70;5.20;;;;;;;;;;5072098;28;20278;-77
2023/05/20 05:28:19;;;;;;;5.83;5.23;;;;;;;;;;5068837;28;20215;-77
2023/05/20 05:30:44;;;;;;;6.53;5.87;;;;;;;;;;5065576;28;20187;-77
2023/05/20 05:33:09;;;;;;;6.03;5.40;;;;;;;;;;5071232;28;20180;-77
2023/05/20 05:35:35;;;;;;;5.47;4.97;;;;;;;;;;5070938;28;20177;-77
2023/05/20 05:38:00;;;;;;;5.80;5.13;;;;;;;;;;5088714;28;20224;-77
2023/05/20 05:40:25;;;;;;;7.17;5.30;;;;;;;;;;5068842;28;20180;-77
2023/05/20 05:42:50;;;;;;;8.20;6.57;;;;;;;;;;5072707;28;20207;-77
2023/05/20 05:45:17;;;;;;;5.50;5.00;;;;;;;;;;5068152;28;20262;-77
2023/05/20 05:47:42;;;;;;;5.37;4.87;;;;;;;;;;5068433;28;20192;-77
2023/05/20 05:50:09;;;;;;;6.03;5.53;;;;;;;;;;5069201;28;20177;-77
2023/05/20 05:52:34;;;;;;;5.57;5.07;;;;;;;;;;5065467;28;20188;-77
2023/05/20 05:54:59;;;;;;;6.30;5.17;;;;;;;;;;5091081;28;20252;-77
2023/05/20 05:57:24;;;;;;;6.33;5.03;;;;;;;;;;5066152;28;20177;-77
2023/05/20 05:59:50;;;;;;;6.20;5.00;;;;;;;;;;5065312;28;20217;-77
2023/05/20 06:02:15;;;;;;;6.50;4.97;;;;;;;;;;5061382;28;20301;-77
2023/05/20 06:04:40;;;;;;;6.03;5.20;;;;;;;;;;5065274;28;20189;-77
2023/05/20 06:07:06;;;;;;;5.80;5.20;;;;;;;;;;5065915;28;20172;-77
2023/05/20 06:09:31;;;;;;;6.07;5.37;;;;;;;;;;5083931;28;20174;-77
2023/05/20 06:11:56;;;;;;;8.63;7.93;;;;;;;;;;5065524;28;20205;-77
2023/05/20 06:14:21;;;;;;;6.47;5.13;;;;;;;;;;5067193;28;20181;-77
2023/05/20 06:16:46;;;;;;;5.93;5.33;;;;;;;;;;5070074;28;20190;-77
2023/05/20 06:19:11;;;;;;;6.73;5.50;;;;;;;;;;5068250;28;20238;-77
2023/05/20 06:21:37;;;;;;;7.17;5.30;;;;;;;;;;5090735;28;20212;-77
2023/05/20 06:24:02;;;;;;;5.90;5.30;;;;;;;;;;5065027;28;20261;-77
2023/05/20 06:26:28;;;;;;;6.47;5.20;;;;;;;;;;5080194;28;20174;-77
2023/05/20 06:28:53;;;;;;;6.23;5.60;;;;;;;;;;5057966;28;20191;-77
2023/05/20 06:31:18;;;;;;;7.10;5.57;;;;;;;;;;5059080;28;20187;-77
2023/05/20 06:33:43;;;;;;;7.07;6.37;;;;;;;;;;5063132;28;20198;-77
2023/05/20 06:36:08;;;;;;;6.10;5.37;;;;;;;;;;5061630;28;20216;-79
2023/05/20 06:38:34;;;;;;;7.13;5.53;;;;;;;;;;5061465;28;20220;-77
2023/05/20 06:40:59;;;;;;;6.60;6.00;;;;;;;;;;5077957;28;20425;-77
2023/05/20 06:43:24;;;;;;;9.13;8.23;;;;;;;;;;5061248;28;20217;-77
2023/05/20 06:45:50;;;;;;;6.00;5.50;;;;;;;;;;5067377;28;20185;-77
2023/05/20 06:48:15;;;;;;;8.00;5.77;;;;;;;;;;5081007;28;20206;-76
2023/05/20 06:50:40;;;;;;;6.00;5.30;;;;;;;;;;5065183;28;20204;-76
2023/05/20 06:53:06;;;;;;;6.47;5.97;;;;;;;;;;5065768;28;20190;-76
2023/05/20 06:55:31;;;;;;;6.57;5.97;;;;;;;;;;5065356;28;20284;-76
2023/05/20 06:57:56;;;;;;;8.90;6.80;;;;;;;;;;5061671;28;20318;-76
2023/05/20 07:00:21;;;;;;;7.80;6.47;;;;;;;;;;5061836;28;20177;-76
2023/05/20 07:02:46;;;;;;;6.57;5.83;;;;;;;;;;5064677;28;20199;-76
2023/05/20 07:05:12;;;;;;;7.77;6.90;;;;;;;;;;5061761;28;20249;-76
2023/05/20 07:07:37;;;;;;;7.00;6.07;;;;;;;;;;5078168;28;20257;-76
2023/05/20 07:10:04;;;;;;;7.27;6.57;;;;;;;;;;5062786;28;20261;-76
2023/05/20 07:12:29;;;;;;;6.93;6.27;;;;;;;;;;5066005;28;20222;-76
2023/05/20 07:14:55;;;;;;;6.83;6.13;;;;;;;;;;5064122;28;20209;-76
2023/05/20 07:17:20;;;;;;;6.70;6.10;;;;;;;;;;5080703;28;20210;-76
2023/05/20 07:19:45;;;;;;;6.93;6.23;;;;;;;;;;5063475;28;20181;-76
2023/05/20 07:22:10;;;;;;;6.93;6.33;;;;;;;;;;5078829;28;20185;-76
2023/05/20 07:24:36;;;;;;;7.13;6.43;;;;;;;;;;5064459;28;20214;-76
2023/05/20 07:27:01;;;;;;;7.50;6.77;;;;;;;;;;5080831;28;20195;-76
2023/05/20 07:29:26;;;;;;;6.93;6.30;;;;;;;;;;5084563;28;20206;-76
2023/05/20 07:31:51;;;;;;;9.23;6.47;;;;;;;;;;5065956;28;20296;-76
2023/05/20 07:34:17;;;;;;;9.67;6.70;;;;;;;;;;5069031;28;20312;-76
2023/05/20 07:36:43;;;;;;;10.67;7.03;;;;;;;;;;5071399;28;20274;-76
2023/05/20 07:39:09;;;;;;;7.67;6.80;;;;;;;;;;5066736;28;20178;-76
2023/05/20 07:41:35;;;;;;;7.73;7.03;;;;;;;;;;5066263;28;20182;-76
2023/05/20 07:44:01;;;;;;;7.73;6.93;;;;;;;;;;5064960;28;20199;-76
2023/05/20 07:46:26;;;;;;;8.50;6.97;;;;;;;;;;5068428;28;20190;-76
2023/05/20 07:48:51;;;;;;;10.37;7.50;;;;;;;;;;5065090;28;20176;-76
2023/05/20 07:51:17;;;;;;;7.47;6.80;;;;;;;;;;5065857;28;20209;-76
2023/05/20 07:53:43;;;;;;;6.97;6.13;;;;;;;;;;5084041;28;20167;-76
2023/05/20 07:56:08;;;;;;;7.60;6.90;;;;;;;;;;5082424;28;20187;-76
2023/05/20 07:58:33;;;;;;;8.27;7.47;;;;;;;;;;5064232;28;20261;-76
2023/05/20 08:00:58;;;;;;;9.23;8.37;;;;;;;;;;5062779;28;20231;-76
2023/05/20 08:03:24;;;;;;;7.60;6.90;;;;;;;;;;5083352;28;20206;-76
2023/05/20 08:05:49;;;;;;;7.83;7.03;;;;;;;;;;5085377;28;20172;-76
2023/05/20 08:08:15;;;;;;;8.03;7.20;;;;;;;;;;5070892;28;20178;-76
2023/05/20 08:10:40;;;;;;;7.93;7.23;;;;;;;;;;5070423;28;20274;-76
2023/05/20 08:13:05;;;;;;;8.13;7.43;;;;;;;;;;5068676;28;20175;-76
2023/05/20 08:15:31;;;;;;;8.27;7.07;;;;;;;;;;5068522;28;20179;-76
2023/05/20 08:17:56;;;;;;;9.50;7.43;;;;;;;;;;5069122;28;20176;-76
2023/05/20 08:20:21;;;;;;;9.03;7.13;;;;;;;;;;5070964;28;20240;-76
2023/05/20 08:22:47;;;;;;;8.83;7.93;;;;;;;;;;5071770;28;20211;-76
2023/05/20 08:25:12;;;;;;;8.47;7.20;;;;;;;;;;5069732;28;20176;-77
2023/05/20 08:27:37;;;;;;;9.13;7.33;;;;;;;;;;5086493;28;20169;-75
2023/05/20 08:30:03;;;;;;;8.20;7.40;;;;;;;;;;5068039;28;20301;-76
2023/05/20 08:32:28;;;;;;;8.27;6.50;;;;;;;;;;5069491;28;20176;-75
2023/05/20 08:34:53;;;;;;;8.17;7.33;;;;;;;;;;5066979;28;20172;-75
2023/05/20 08:37:19;;;;;;;11.10;7.10;;;;;;;;;;5067331;28;20217;-75
2023/05/20 08:39:46;;;;;;;8.03;7.20;;;;;;;;;;5067284;28;20227;-75
2023/05/20 08:42:12;;;;;;;7.30;6.53;;;;;;;;;;5069541;28;20176;-75
2023/05/20 08:44:39;;;;;;;7.53;6.80;;;;;;;;;;5070730;28;20286;-75
2023/05/20 08:47:05;;;;;;;7.77;6.97;;;;;;;;;;5086211;28;20200;-75
2023/05/20 08:49:30;;;;;;;7.07;6.37;;;;;;;;;;5087648;28;20177;-75
2023/05/20 08:51:56;;;;;;;7.90;6.83;;;;;;;;;;5070687;28;20185;-75
2023/05/20 08:54:22;;;;;;;6.93;6.33;;;;;;;;;;5086592;28;20170;-75
2023/05/20 08:56:48;;;;;;;7.50;6.77;;;;;;;;;;5086232;28;20214;-75
2023/05/20 08:59:13;;;;;;;7.07;6.43;;;;;;;;;;5066084;28;20205;-75
2023/05/20 09:01:42;;;;;;;9.27;7.13;;;;;;;;;;5079243;28;20243;-75
2023/05/20 09:04:07;;;;;;;7.27;6.67;;;;;;;;;;5064591;28;20240;-75
2023/05/20 09:06:41;;;;;;;8.90;7.27;;;;;;;;;;5062192;28;20197;-75
2023/05/20 09:09:07;;;;;;;6.37;5.77;;;;;;;;;;5064940;28;20186;-75
2023/05/20 09:11:32;;;;;;;7.70;6.53;;;;;;;;;;5063519;28;20255;-75
2023/05/20 09:13:57;;;;;;;8.33;7.53;;;;;;;;;;5065386;28;20219;-75
2023/05/20 09:16:22;;;;;;;7.87;7.17;;;;;;;;;;5066629;28;20266;-75
2023/05/20 09:18:48;;;;;;;7.53;6.83;;;;;;;;;;5068624;28;20261;-76
2023/05/20 09:21:13;;;;;;;7.67;6.97;;;;;;;;;;5083144;28;20181;-75
2023/05/20 09:23:39;;;;;;;9.67;7.20;;;;;;;;;;5080696;28;20232;-75
2023/05/20 09:26:04;;;;;;;7.33;6.63;;;;;;;;;;5072445;28;20179;-75
2023/05/20 09:28:29;;;;;;;7.87;7.17;;;;;;;;;;5068271;28;20200;-75
2023/05/20 09:30:58;;;;;;;10.90;7.03;;;;;;;;;;5067255;28;20243;-76
2023/05/20 09:33:26;;;;;;;8.63;7.73;;;;;;;;;;5065781;28;20186;-75
2023/05/20 09:35:51;;;;;;;8.73;7.97;;;;;;;;;;5062511;28;20203;-76
2023/05/20 09:38:17;;;;;;;7.77;6.97;;;;;;;;;;5062933;28;20274;-75
2023/05/20 09:40:43;;;;;;;7.07;6.27;;;;;;;;;;5067077;28;20207;-75
2023/05/20 09:43:10;;;;;;;8.43;6.67;;;;;;;;;;5067050;28;20288;-76
2023/05/20 09:45:37;;;;;;;10.27;7.47;;;;;;;;;;5067809;28;20176;-75
2023/05/20 09:48:03;;;;;;;8.03;6.30;;;;;;;;;;5068842;28;20261;-76
2023/05/20 09:50:29;;;;;;;8.10;7.30;;;;;;;;;;5067878;28;20185;-76
2023/05/20 09:52:54;;;;;;;7.77;5.97;;;;;;;;;;5073265;28;20198;-75
2023/05/20 09:55:23;;;;;;;7.47;6.27;;;;;;;;;;5086046;28;20180;-76
2023/05/20 09:57:48;;;;;;;7.47;6.77;;;;;;;;;;5084652;28;20184;-76
2023/05/20 10:00:16;;;;;;;8.80;6.47;;;;;;;;;;5063119;28;20186;-76
2023/05/20 10:02:49;;;;;;;8.10;7.30;;;;;;;;;;5082641;28;20292;-76
2023/05/20 10:05:23;;;;;;;6.77;6.13;;;;;;;;;;5063910;28;20218;-76
2023/05/20 10:07:51;;;;;;;6.73;6.03;;;;;;;;;;5063690;28;20177;-75
2023/05/20 10:10:16;;;;;;;6.83;6.13;;;;;;;;;;5083729;28;20267;-75
2023/05/20 10:13:00;;;;;;;6.33;5.73;;;;;;;;;;5065791;28;20180;-76
2023/05/20 10:15:44;;;;;;;6.73;6.13;;;;;;;;;;5064793;28;20233;-76
2023/05/20 10:18:28;;;;;;;6.80;6.20;;;;;;;;;;5065663;28;20246;-76
2023/05/20 10:20:53;;;;;;;7.57;6.13;;;;;;;;;;5067461;28;20181;-76
2023/05/20 10:23:19;;;;;;;8.50;5.53;;;;;;;;;;5066823;28;20263;-75
2023/05/20 10:25:50;;;;;;;6.23;5.73;;;;;;;;;;5066812;28;20203;-75
2023/05/20 10:28:15;;;;;;;6.73;6.13;;;;;;;;;;5063230;28;20184;-76
2023/05/20 10:30:48;;;;;;;6.50;5.80;;;;;;;;;;5066602;28;20190;-77
2023/05/20 10:33:15;;;;;;;7.40;6.60;;;;;;;;;;5083257;28;20200;-76
2023/05/20 10:35:45;;;;;;;7.07;6.17;;;;;;;;;;5068503;28;20248;-76
2023/05/20 10:38:11;;;;;;;6.97;6.37;;;;;;;;;;5065201;28;20231;-76
2023/05/20 10:40:37;;;;;;;7.37;6.77;;;;;;;;;;5063086;28;20264;-76
2023/05/20 10:43:15;;;;;;;7.03;6.43;;;;;;;;;;5062420;28;20212;-76
2023/05/20 10:45:48;;;;;;;6.63;6.03;;;;;;;;;;5063015;28;20169;-76
2023/05/20 10:48:30;;;;;;;7.13;6.53;;;;;;;;;;5065454;28;20176;-76
2023/05/20 10:51:02;;;;;;;10.10;6.20;;;;;;;;;;5067296;28;20187;-76
2023/05/20 10:53:28;;;;;;;7.03;6.33;;;;;;;;;;5081890;28;20184;-76
2023/05/20 10:55:54;;;;;;;7.30;6.67;;;;;;;;;;5062561;28;20181;-76
2023/05/20 10:58:22;;;;;;;6.67;6.17;;;;;;;;;;5082172;28;20199;-76
2023/05/20 11:00:48;;;;;;;5.80;5.30;;;;;;;;;;5057004;28;20208;-76
2023/05/20 11:03:15;;;;;;;6.93;5.90;;;;;;;;;;5060924;28;20201;-76
2023/05/20 11:05:40;;;;;;;6.73;6.13;;;;;;;;;;5067330;28;20178;-76
2023/05/20 11:08:07;;;;;;;6.53;5.93;;;;;;;;;;5065616;28;20181;-76
2023/05/20 11:10:32;;;;;;;6.10;5.57;;;;;;;;;;5066877;28;20181;-76
2023/05/20 11:12:58;;;;;;;7.10;6.50;;;;;;;;;;5063576;28;20178;-75
2023/05/20 11:15:26;;;;;;;6.63;6.03;;;;;;;;;;5067066;28;20193;-76
2023/05/20 11:17:54;;;;;;;6.07;5.57;;;;;;;;;;5063037;28;20182;-75
2023/05/20 11:20:23;;;;;;;7.97;7.23;;;;;;;;;;5063624;28;20231;-75
2023/05/20 11:22:52;;;;;;;6.23;5.73;;;;;;;;;;5064750;28;20204;-76
2023/05/20 11:25:18;;;;;;;6.73;6.13;;;;;;;;;;5083233;28;20177;-76
2023/05/20 11:27:43;;;;;;;7.13;6.13;;;;;;;;;;5067804;28;20175;-76
2023/05/20 11:30:09;;;;;;;6.30;5.70;;;;;;;;;;5069069;28;20169;-76
2023/05/20 11:32:35;;;;;;;6.80;6.13;;;;;;;;;;5078243;28;20235;-76
2023/05/20 11:35:00;;;;;;;6.97;6.27;;;;;;;;;;5061007;28;20189;-78
2023/05/20 11:37:26;;;;;;;7.43;6.73;;;;;;;;;;5084483;28;20222;-78
2023/05/20 11:40:06;;;;;;;8.73;6.50;;;;;;;;;;5088078;28;20181;-78
2023/05/20 11:42:31;;;;;;;7.57;6.73;;;;;;;;;;5071685;28;20188;-77
2023/05/20 11:44:58;;;;;;;7.20;6.40;;;;;;;;;;5085855;28;20304;-78
2023/05/20 11:47:26;;;;;;;6.40;5.80;;;;;;;;;;5071196;28;20293;-78
2023/05/20 11:49:51;;;;;;;6.60;6.00;;;;;;;;;;5069332;28;20187;-79
2023/05/20 11:52:16;;;;;;;6.67;5.97;;;;;;;;;;5071616;28;20195;-78
2023/05/20 11:54:42;;;;;;;6.33;5.77;;;;;;;;;;5068465;28;20169;-78
2023/05/20 11:57:07;;;;;;;7.00;6.40;;;;;;;;;;5085764;28;20180;-78
2023/05/20 11:59:32;;;;;;;7.83;6.60;;;;;;;;;;5069961;28;20185;-78
2023/05/20 12:01:57;;;;;;;6.73;6.00;;;;;;;;;;5067674;28;20193;-78
2023/05/20 12:04:22;;;;;;;7.80;5.97;;;;;;;;;;5086666;28;20200;-78
2023/05/20 12:06:48;;;;;;;6.77;5.47;;;;;;;;;;5087031;28;20180;-78
2023/05/20 12:09:13;;;;;;;6.80;5.93;;;;;;;;;;5065234;28;20187;-78
2023/05/20 12:11:43;;;;;;;5.40;5.00;;;;;;;;;;5070647;28;20172;-78
2023/05/20 12:14:08;;;;;;;6.37;5.87;;;;;;;;;;5083764;28;20184;-78
2023/05/20 12:16:34;;;;;;;6.07;5.57;;;;;;;;;;5067860;28;20175;-78
2023/05/20 12:18:59;;;;;;;6.60;6.10;;;;;;;;;;5071275;28;20175;-79
2023/05/20 12:21:25;;;;;;;6.57;5.43;;;;;;;;;;5086350;28;20188;-78
2023/05/20 12:23:56;;;;;;;9.10;6.57;;;;;;;;;;5069454;28;20248;-78
2023/05/20 12:26:21;;;;;;;8.27;6.53;;;;;;;;;;5070312;28;20179;-78
2023/05/20 12:28:46;;;;;;;6.40;5.80;;;;;;;;;;5070855;28;20188;-78
2023/05/20 12:31:11;;;;;;;6.43;5.83;;;;;;;;;;5062683;28;20235;-78
2023/05/20 12:33:37;;;;;;;6.77;6.17;;;;;;;;;;5068272;28;20216;-78
2023/05/20 12:36:02;;;;;;;7.13;6.37;;;;;;;;;;5068983;28;20175;-78
2023/05/20 12:38:27;;;;;;;7.23;6.53;;;;;;;;;;5069868;28;20315;-78
2023/05/20 12:40:53;;;;;;;7.47;5.77;;;;;;;;;;5068787;28;20177;-78
2023/05/20 12:43:18;;;;;;;6.20;5.60;;;;;;;;;;5085508;28;20198;-78
2023/05/20 12:45:43;;;;;;;6.87;6.03;;;;;;;;;;5068111;28;20175;-78
2023/05/20 12:48:08;;;;;;;6.63;6.03;;;;;;;;;;5071444;28;20177;-78
2023/05/20 12:50:34;;;;;;;6.60;6.00;;;;;;;;;;5068176;28;20182;-78
2023/05/20 12:52:59;;;;;;;6.97;6.37;;;;;;;;;;5065267;28;20189;-78
2023/05/20 12:55:24;;;;;;;7.90;7.10;;;;;;;;;;5085726;28;20183;-78
2023/05/20 12:57:49;;;;;;;6.57;6.07;;;;;;;;;;5073279;28;20230;-78
2023/05/20 13:00:15;;;;;;;11.67;5.90;;;;;;;;;;5067111;28;20192;-78
2023/05/20 13:02:41;;;;;;;7.03;6.33;;;;;;;;;;5059407;28;20201;-78
2023/05/20 13:05:06;;;;;;;7.67;5.80;;;;;;;;;;5065779;28;20189;-78
2023/05/20 13:07:31;;;;;;;7.20;6.50;;;;;;;;;;5063897;28;20184;-78
2023/05/20 13:09:57;;;;;;;6.30;5.70;;;;;;;;;;5085761;28;20219;-78
2023/05/20 13:12:22;;;;;;;6.77;6.03;;;;;;;;;;5087090;28;20174;-78
2023/05/20 13:14:48;;;;;;;7.90;5.83;;;;;;;;;;5085647;28;20184;-78
2023/05/20 13:17:13;;;;;;;6.17;5.77;;;;;;;;;;5087407;28;20207;-78
2023/05/20 13:19:38;;;;;;;6.00;5.43;;;;;;;;;;5066661;28;20171;-78
2023/05/20 13:22:05;;;;;;;5.97;5.47;;;;;;;;;;5065617;28;20188;-78
2023/05/20 13:24:30;;;;;;;5.87;5.27;;;;;;;;;;5084420;28;20209;-78
2023/05/20 13:26:55;;;;;;;6.77;5.70;;;;;;;;;;5061486;28;20183;-78
2023/05/20 13:29:20;;;;;;;7.17;5.80;;;;;;;;;;5066905;28;20166;-78
2023/05/20 13:31:46;;;;;;;5.27;4.87;;;;;;;;;;5084893;28;20211;-79
2023/05/20 13:34:11;;;;;;;8.27;5.47;;;;;;;;;;5067486;28;20198;-78
2023/05/20 13:36:36;;;;;;;5.63;5.13;;;;;;;;;;5065494;28;20237;-78
2023/05/20 13:39:01;;;;;;;5.57;4.90;;;;;;;;;;5084849;28;20188;-78
2023/05/20 13:41:27;;;;;;;5.53;5.03;;;;;;;;;;5066243;28;20184;-78
2023/05/20 13:43:52;;;;;;;7.60;7.00;;;;;;;;;;5085747;28;20275;-78
2023/05/20 13:46:17;;;;;;;5.87;5.37;;;;;;;;;;5067551;28;20287;-78
2023/05/20 13:48:42;;;;;;;7.40;5.87;;;;;;;;;;5085269;28;20217;-78
2023/05/20 13:51:08;;;;;;;6.00;5.50;;;;;;;;;;5087139;28;20180;-78
2023/05/20 13:53:33;;;;;;;7.70;5.97;;;;;;;;;;5082823;28;20173;-78
2023/05/20 13:55:58;;;;;;;5.80;5.37;;;;;;;;;;5064216;28;20184;-78
2023/05/20 13:58:23;;;;;;;7.17;5.83;;;;;;;;;;5086754;28;20175;-78
2023/05/20 14:00:49;;;;;;;6.17;5.67;;;;;;;;;;5063179;28;20191;-78
2023/05/20 14:03:14;;;;;;;6.33;5.67;;;;;;;;;;5084334;28;20210;-78
2023/05/20 14:05:39;;;;;;;6.73;6.13;;;;;;;;;;5065433;28;20170;-78
2023/05/20 14:08:05;;;;;;;5.00;4.60;;;;;;;;;;5080943;28;20173;-78
2023/05/20 14:10:30;;;;;;;8.70;5.77;;;;;;;;;;5065695;28;20199;-78
2023/05/20 14:13:01;;;;;;;5.73;5.07;;;;;;;;;;5085937;28;20204;-78
2023/05/20 14:15:29;;;;;;;5.97;5.47;;;;;;;;;;5066424;28;20183;-79
2023/05/20 14:17:54;;;;;;;6.20;5.40;;;;;;;;;;5083440;28;20230;-78
2023/05/20 14:20:19;;;;;;;7.07;5.83;;;;;;;;;;5067568;28;20211;-78
2023/05/20 14:22:44;;;;;;;6.00;5.40;;;;;;;;;;5066397;28;20189;-78
2023/05/20 14:25:10;;;;;;;6.33;5.43;;;;;;;;;;5067649;28;20270;-77
2023/05/20 14:27:35;;;;;;;5.53;5.13;;;;;;;;;;5065986;28;20176;-78
2023/05/20 14:30:00;;;;;;;6.03;5.10;;;;;;;;;;5061111;28;20183;-79
2023/05/20 14:32:26;;;;;;;6.37;5.77;;;;;;;;;;5081926;28;20190;-79
2023/05/20 14:34:52;;;;;;;6.03;5.47;;;;;;;;;;5079554;28;20189;-79